Time;durP1;ratioP1;P1;durP2;ratioP2;P2;SDS_P1;SDS_P2;PMS_P1;PMS_P2;Temp;Humidity;BMP_temperature;BMP_pressure;BME280_temperature;BME280_humidity;BME280_pressure;Samples;Min_cycle;Max_cycle;Signal;HPM_P1;HPM_P2
2023/08/07 00:00:30;;;;;;;1.00;0.43;;;14.40;99.90;;;;;;5094303;28;20266;-59
2023/08/07 00:02:58;;;;;;;3.03;0.68;;;14.40;99.90;;;;;;5107410;28;20204;-59
2023/08/07 00:05:26;;;;;;;1.65;0.50;;;14.40;99.90;;;;;;5097376;28;20210;-60
2023/08/07 00:07:54;;;;;;;1.20;0.50;;;14.40;99.90;;;;;;5099046;28;20330;-60
2023/08/07 00:10:24;;;;;;;4.90;0.70;;;14.40;99.90;;;;;;5105248;28;20243;-59
2023/08/07 00:12:52;;;;;;;6.03;0.80;;;14.40;99.90;;;;;;5093310;28;20209;-59
2023/08/07 00:15:20;;;;;;;2.88;0.63;;;14.40;99.90;;;;;;5104147;28;20267;-59
2023/08/07 00:17:48;;;;;;;4.25;0.50;;;14.30;99.90;;;;;;5100029;28;20227;-59
2023/08/07 00:20:16;;;;;;;1.88;0.70;;;14.30;99.90;;;;;;5096076;28;20546;-60
2023/08/07 00:22:44;;;;;;;7.15;1.00;;;14.30;99.90;;;;;;5106234;28;20235;-59
2023/08/07 00:25:12;;;;;;;3.63;0.60;;;14.30;99.90;;;;;;5094260;28;20200;-60
2023/08/07 00:27:41;;;;;;;2.38;0.73;;;14.40;99.90;;;;;;5100901;28;20231;-60
2023/08/07 00:30:10;;;;;;;3.83;0.73;;;14.30;99.90;;;;;;5102789;28;20232;-59
2023/08/07 00:32:38;;;;;;;3.38;0.70;;;14.40;99.90;;;;;;5096140;28;20258;-59
2023/08/07 00:35:08;;;;;;;3.13;0.93;;;14.40;99.90;;;;;;5089461;28;20258;-59
2023/08/07 00:37:36;;;;;;;3.80;0.73;;;14.30;99.90;;;;;;5097827;28;20200;-59
2023/08/07 00:40:04;;;;;;;3.22;0.77;;;14.40;99.90;;;;;;5097104;28;20335;-59
2023/08/07 00:42:32;;;;;;;2.40;0.52;;;14.30;99.90;;;;;;5105404;28;20636;-59
2023/08/07 00:45:02;;;;;;;4.38;0.75;;;14.30;99.90;;;;;;5092781;28;20271;-59
2023/08/07 00:47:29;;;;;;;3.90;0.70;;;14.30;99.90;;;;;;5102027;28;20268;-59
2023/08/07 00:49:57;;;;;;;1.80;0.98;;;14.40;99.90;;;;;;5100724;28;20223;-59
2023/08/07 00:52:25;;;;;;;4.68;1.00;;;14.30;99.90;;;;;;5093736;28;20262;-60
2023/08/07 00:54:53;;;;;;;1.85;0.60;;;14.40;99.90;;;;;;5106030;28;20228;-59
2023/08/07 00:57:22;;;;;;;5.95;1.05;;;14.40;99.90;;;;;;5095469;28;20196;-59
2023/08/07 00:59:50;;;;;;;5.07;0.95;;;14.40;99.90;;;;;;5098583;28;20201;-59
2023/08/07 01:02:20;;;;;;;2.65;0.68;;;14.40;99.90;;;;;;5103410;28;20249;-59
2023/08/07 01:04:48;;;;;;;7.38;0.90;;;14.40;99.90;;;;;;5092236;28;20200;-59
2023/08/07 01:07:15;;;;;;;4.80;1.10;;;14.40;99.90;;;;;;5103363;28;20629;-60
2023/08/07 01:09:43;;;;;;;4.32;0.75;;;14.40;99.90;;;;;;5098350;28;20271;-59
2023/08/07 01:12:15;;;;;;;5.38;0.77;;;14.40;99.90;;;;;;5094601;28;20319;-60
2023/08/07 01:14:49;;;;;;;3.35;1.17;;;14.40;99.90;;;;;;5105749;28;20243;-59
2023/08/07 01:17:18;;;;;;;3.88;1.05;;;14.40;99.90;;;;;;5094450;28;20227;-59
2023/08/07 01:19:47;;;;;;;4.18;0.95;;;14.40;99.90;;;;;;5099118;28;20243;-59
2023/08/07 01:22:17;;;;;;;3.75;1.42;;;14.40;99.90;;;;;;5102682;28;20287;-59
2023/08/07 01:24:46;;;;;;;3.75;0.93;;;14.40;99.90;;;;;;5092100;28;20269;-59
2023/08/07 01:27:20;;;;;;;9.52;1.10;;;14.40;99.90;;;;;;5103477;28;20288;-59
2023/08/07 01:29:51;;;;;;;4.13;1.00;;;14.50;99.90;;;;;;5098384;28;20233;-59
2023/08/07 01:32:21;;;;;;;3.85;1.13;;;14.40;99.90;;;;;;5095215;28;20687;-59
2023/08/07 01:34:49;;;;;;;3.50;1.25;;;14.40;99.90;;;;;;5089806;28;20215;-60
2023/08/07 01:37:18;;;;;;;2.15;1.08;;;14.40;99.90;;;;;;5094479;28;20716;-59
2023/08/07 01:39:46;;;;;;;9.02;1.33;;;14.40;99.90;;;;;;5098783;28;20224;-60
2023/08/07 01:42:14;;;;;;;7.18;1.65;;;14.40;99.90;;;;;;5101913;28;20295;-61
2023/08/07 01:44:42;;;;;;;6.78;1.30;;;14.40;99.90;;;;;;5091483;28;20870;-60
2023/08/07 01:47:10;;;;;;;5.70;1.25;;;14.30;99.90;;;;;;5103658;28;20292;-60
2023/08/07 01:49:38;;;;;;;8.32;1.30;;;14.40;99.90;;;;;;5096795;28;20206;-59
2023/08/07 01:52:08;;;;;;;6.15;1.42;;;14.40;99.90;;;;;;5095676;28;20244;-59
2023/08/07 01:54:37;;;;;;;6.82;1.60;;;14.40;99.90;;;;;;5104493;28;20203;-59
2023/08/07 01:57:06;;;;;;;6.47;1.40;;;14.40;99.90;;;;;;5092206;28;20270;-59
2023/08/07 01:59:34;;;;;;;4.35;1.45;;;14.40;99.90;;;;;;5100297;28;20620;-59
2023/08/07 02:02:01;;;;;;;6.70;1.40;;;14.40;99.90;;;;;;5102616;28;20296;-59
2023/08/07 02:04:29;;;;;;;8.93;1.55;;;14.40;99.90;;;;;;5095673;28;20228;-59
2023/08/07 02:06:57;;;;;;;9.38;1.80;;;14.40;99.90;;;;;;5108312;28;20283;-59
2023/08/07 02:09:25;;;;;;;3.53;1.30;;;14.40;99.90;;;;;;5098319;28;20285;-60
2023/08/07 02:11:54;;;;;;;8.68;1.73;;;14.40;99.90;;;;;;5101064;28;20385;-59
2023/08/07 02:14:22;;;;;;;8.57;1.63;;;14.40;99.90;;;;;;5106551;28;20291;-59
2023/08/07 02:16:50;;;;;;;8.15;1.77;;;14.40;99.90;;;;;;5095771;28;20273;-59
2023/08/07 02:19:18;;;;;;;5.82;1.58;;;14.40;99.90;;;;;;5105885;28;20224;-59
2023/08/07 02:21:46;;;;;;;7.22;1.67;;;14.40;99.90;;;;;;5101165;28;20299;-58
2023/08/07 02:24:14;;;;;;;7.05;1.70;;;14.40;99.90;;;;;;5101124;28;20702;-59
2023/08/07 02:26:41;;;;;;;11.00;1.42;;;14.40;99.90;;;;;;5112534;28;20643;-61
2023/08/07 02:29:11;;;;;;;6.15;2.05;;;14.40;99.90;;;;;;5100462;28;20707;-57
2023/08/07 02:31:39;;;;;;;8.23;1.60;;;14.30;99.90;;;;;;5106921;28;20771;-58
2023/08/07 02:34:07;;;;;;;5.97;1.58;;;14.30;99.90;;;;;;5099488;28;20207;-58
2023/08/07 02:36:34;;;;;;;5.10;2.00;;;14.30;99.90;;;;;;5095738;28;20200;-58
2023/08/07 02:39:03;;;;;;;6.15;1.60;;;14.30;99.90;;;;;;5099838;28;20644;-58
2023/08/07 02:41:31;;;;;;;3.50;1.67;;;14.30;99.90;;;;;;5108065;28;20707;-57
2023/08/07 02:43:59;;;;;;;7.53;1.45;;;14.30;99.90;;;;;;5107227;28;20628;-58
2023/08/07 02:46:28;;;;;;;6.93;1.80;;;14.30;99.90;;;;;;5099940;28;20289;-57
2023/08/07 02:48:56;;;;;;;6.40;1.45;;;14.30;99.90;;;;;;5112109;28;20201;-57
2023/08/07 02:51:24;;;;;;;6.40;1.95;;;14.30;99.90;;;;;;5102637;28;20216;-57
2023/08/07 02:53:52;;;;;;;4.35;1.50;;;14.30;99.90;;;;;;5104570;28;20275;-55
2023/08/07 02:56:19;;;;;;;6.35;1.90;;;14.30;99.90;;;;;;5109616;28;20269;-57
2023/08/07 02:58:47;;;;;;;6.30;1.73;;;14.30;99.90;;;;;;5098432;28;20269;-57
2023/08/07 03:01:16;;;;;;;6.50;1.85;;;14.20;99.90;;;;;;5109646;28;20636;-58
2023/08/07 03:03:45;;;;;;;6.70;1.75;;;14.30;99.90;;;;;;5100104;28;20618;-56
2023/08/07 03:06:13;;;;;;;5.57;1.45;;;14.30;99.90;;;;;;5111579;28;20666;-56
2023/08/07 03:08:42;;;;;;;9.57;1.67;;;14.30;99.90;;;;;;5098351;28;20273;-57
2023/08/07 03:11:10;;;;;;;4.35;1.65;;;14.30;99.90;;;;;;5110223;28;20220;-57
2023/08/07 03:13:38;;;;;;;10.60;1.42;;;14.30;99.90;;;;;;5103380;28;20671;-56
2023/08/07 03:16:07;;;;;;;11.00;1.98;;;14.30;99.90;;;;;;5101988;28;20285;-59
2023/08/07 03:18:35;;;;;;;6.47;1.50;;;14.30;99.90;;;;;;5111392;28;20672;-59
2023/08/07 03:21:04;;;;;;;8.73;1.70;;;14.30;99.90;;;;;;5098382;28;20299;-59
2023/08/07 03:23:33;;;;;;;4.72;1.63;;;14.20;99.90;;;;;;5106715;28;20287;-59
2023/08/07 03:26:05;;;;;;;4.07;1.63;;;14.30;99.90;;;;;;5106420;28;20243;-58
2023/08/07 03:28:35;;;;;;;4.18;1.67;;;14.30;99.90;;;;;;5097525;28;20271;-59
2023/08/07 03:31:03;;;;;;;6.65;1.67;;;14.30;99.90;;;;;;5110980;28;20262;-59
2023/08/07 03:33:31;;;;;;;12.65;1.70;;;14.30;99.90;;;;;;5097152;28;20216;-58
2023/08/07 03:35:59;;;;;;;5.20;1.45;;;14.30;99.90;;;;;;5093952;28;20232;-59
2023/08/07 03:38:28;;;;;;;6.47;1.55;;;14.30;99.90;;;;;;5109726;28;20682;-59
2023/08/07 03:40:56;;;;;;;5.38;1.60;;;14.30;99.90;;;;;;5097328;28;20216;-59
2023/08/07 03:43:24;;;;;;;5.60;1.40;;;14.30;99.90;;;;;;5107278;28;20707;-58
2023/08/07 03:45:55;;;;;;;4.28;1.58;;;14.30;99.90;;;;;;5104547;28;20286;-59
2023/08/07 03:48:26;;;;;;;4.90;1.30;;;14.30;99.90;;;;;;5098696;28;20202;-59
2023/08/07 03:50:54;;;;;;;6.20;1.73;;;14.20;99.90;;;;;;5110785;28;20259;-58
2023/08/07 03:53:21;;;;;;;5.18;1.27;;;14.30;99.90;;;;;;5100131;28;20247;-58
2023/08/07 03:55:54;;;;;;;8.43;1.92;;;14.30;99.90;;;;;;5103483;28;20261;-58
2023/08/07 03:58:21;;;;;;;6.22;1.65;;;14.30;99.90;;;;;;5108688;28;20288;-58
2023/08/07 04:00:51;;;;;;;5.70;1.63;;;14.30;99.90;;;;;;5097223;28;20256;-58
2023/08/07 04:03:19;;;;;;;8.73;1.67;;;14.30;99.90;;;;;;5107792;28;20189;-59
2023/08/07 04:05:47;;;;;;;7.15;2.17;;;14.20;99.90;;;;;;5103484;28;20283;-59
2023/08/07 04:08:16;;;;;;;8.45;1.65;;;14.30;99.90;;;;;;5099990;28;20626;-58
2023/08/07 04:10:43;;;;;;;4.75;1.42;;;14.30;99.90;;;;;;5110100;28;20775;-59
2023/08/07 04:13:13;;;;;;;4.57;1.55;;;14.30;99.90;;;;;;5098471;28;20220;-58
2023/08/07 04:15:41;;;;;;;6.78;1.63;;;14.30;99.90;;;;;;5104420;28;20224;-59
2023/08/07 04:18:09;;;;;;;10.45;1.73;;;14.30;99.90;;;;;;5106445;28;20206;-59
2023/08/07 04:20:37;;;;;;;7.03;2.22;;;14.30;99.90;;;;;;5096423;28;20645;-59
2023/08/07 04:23:05;;;;;;;7.03;1.65;;;14.30;99.90;;;;;;5109448;28;20220;-59
2023/08/07 04:25:33;;;;;;;11.80;1.75;;;14.30;99.90;;;;;;5101268;28;20615;-59
2023/08/07 04:28:01;;;;;;;7.57;1.42;;;14.30;99.90;;;;;;5101337;28;20211;-58
2023/08/07 04:30:30;;;;;;;6.45;1.60;;;14.30;99.90;;;;;;5108910;28;20306;-58
2023/08/07 04:32:58;;;;;;;7.22;1.63;;;14.40;99.90;;;;;;5096730;28;20260;-59
2023/08/07 04:35:26;;;;;;;4.80;1.77;;;14.30;99.90;;;;;;5092937;28;20197;-59
2023/08/07 04:37:53;;;;;;;6.03;1.70;;;14.40;99.90;;;;;;5104093;28;20261;-59
2023/08/07 04:40:21;;;;;;;12.52;2.25;;;14.30;99.90;;;;;;5098554;28;20636;-59
2023/08/07 04:42:49;;;;;;;4.15;1.83;;;14.30;99.90;;;;;;5109590;28;20316;-58
2023/08/07 04:45:17;;;;;;;3.63;1.15;;;14.30;99.90;;;;;;5097806;28;20204;-59
2023/08/07 04:47:46;;;;;;;7.88;1.65;;;14.30;99.90;;;;;;5102770;28;20735;-59
2023/08/07 04:50:14;;;;;;;3.58;1.38;;;14.30;99.90;;;;;;5106748;28;20215;-59
2023/08/07 04:52:42;;;;;;;6.18;1.98;;;14.30;99.90;;;;;;5099622;28;20298;-59
2023/08/07 04:55:10;;;;;;;6.28;1.77;;;14.30;99.90;;;;;;5097118;28;20380;-58
2023/08/07 04:57:38;;;;;;;4.75;1.67;;;14.30;99.90;;;;;;5095072;28;20211;-59
2023/08/07 05:00:07;;;;;;;5.50;1.45;;;14.30;99.90;;;;;;5104223;28;20310;-59
2023/08/07 05:02:35;;;;;;;2.83;1.38;;;14.30;99.90;;;;;;5107789;28;20283;-59
2023/08/07 05:05:05;;;;;;;5.60;1.75;;;14.30;99.90;;;;;;5105515;28;20205;-59
2023/08/07 05:07:34;;;;;;;8.07;1.83;;;14.30;99.90;;;;;;5103864;28;20211;-59
2023/08/07 05:10:02;;;;;;;5.22;1.42;;;14.30;99.90;;;;;;5099420;28;20234;-59
2023/08/07 05:12:30;;;;;;;5.40;1.77;;;14.30;99.90;;;;;;5099728;28;20204;-59
2023/08/07 05:14:58;;;;;;;3.75;1.70;;;14.40;99.90;;;;;;5106230;28;20242;-59
2023/08/07 05:17:25;;;;;;;4.88;1.50;;;14.30;99.90;;;;;;5102802;28;20200;-59
2023/08/07 05:19:53;;;;;;;3.70;1.25;;;14.40;99.90;;;;;;5093802;28;20208;-59
2023/08/07 05:22:23;;;;;;;3.30;1.80;;;14.40;99.90;;;;;;5092109;28;20228;-58
2023/08/07 05:24:50;;;;;;;7.13;1.30;;;14.40;99.90;;;;;;5108698;28;20260;-58
2023/08/07 05:27:18;;;;;;;4.90;1.48;;;14.40;99.90;;;;;;5096999;28;20200;-58
2023/08/07 05:29:46;;;;;;;4.03;1.40;;;14.40;99.90;;;;;;5102431;28;20192;-58
2023/08/07 05:32:15;;;;;;;6.65;1.58;;;14.50;99.90;;;;;;5105572;28;20287;-60
2023/08/07 05:34:42;;;;;;;5.65;1.67;;;14.40;99.90;;;;;;5108525;28;20773;-59
2023/08/07 05:37:10;;;;;;;4.85;1.58;;;14.40;99.90;;;;;;5097048;28;20596;-58
2023/08/07 05:39:39;;;;;;;6.50;1.42;;;14.40;99.90;;;;;;5103472;28;20197;-59
2023/08/07 05:42:09;;;;;;;6.55;1.48;;;14.50;99.90;;;;;;5104998;28;20225;-59
2023/08/07 05:44:37;;;;;;;3.45;1.63;;;14.50;99.90;;;;;;5095160;28;20760;-60
2023/08/07 05:47:06;;;;;;;4.53;1.38;;;14.50;99.90;;;;;;5108099;28;20289;-59
2023/08/07 05:49:34;;;;;;;6.60;1.67;;;14.50;99.90;;;;;;5100254;28;20224;-60
2023/08/07 05:52:02;;;;;;;6.20;1.77;;;14.50;99.90;;;;;;5100065;28;20224;-59
2023/08/07 05:54:29;;;;;;;4.22;1.30;;;14.50;99.90;;;;;;5107493;28;20759;-59
2023/08/07 05:56:59;;;;;;;3.97;1.65;;;14.50;99.90;;;;;;5095216;28;20200;-58
2023/08/07 05:59:26;;;;;;;3.53;1.58;;;14.50;99.90;;;;;;5104758;28;20721;-59
2023/08/07 06:01:54;;;;;;;9.25;1.77;;;14.60;99.90;;;;;;5102888;28;20223;-60
2023/08/07 06:04:26;;;;;;;8.52;1.80;;;14.60;99.90;;;;;;5096189;28;20200;-59
2023/08/07 06:06:54;;;;;;;6.90;1.40;;;14.60;99.90;;;;;;5108126;28;20273;-58
2023/08/07 06:09:22;;;;;;;6.18;1.70;;;14.60;99.90;;;;;;5098271;28;20200;-59
2023/08/07 06:11:50;;;;;;;5.47;1.70;;;14.60;99.90;;;;;;5101602;28;20240;-59
2023/08/07 06:14:19;;;;;;;6.28;1.60;;;14.60;99.90;;;;;;5105945;28;20716;-60
2023/08/07 06:16:47;;;;;;;6.63;1.80;;;14.60;99.90;;;;;;5094994;28;20287;-59
2023/08/07 06:19:15;;;;;;;2.38;1.42;;;14.60;99.90;;;;;;5105978;28;20224;-60
2023/08/07 06:21:57;;;;;;;5.78;1.50;;;14.60;99.90;;;;;;5103309;28;20220;-59
2023/08/07 06:24:26;;;;;;;5.05;1.30;;;14.60;99.90;;;;;;5096248;28;20258;-58
2023/08/07 06:26:54;;;;;;;5.25;1.40;;;14.60;99.90;;;;;;5108249;28;20313;-60
2023/08/07 06:29:24;;;;;;;2.35;1.42;;;14.60;99.90;;;;;;5098056;28;20313;-59
2023/08/07 06:31:51;;;;;;;6.07;1.20;;;14.50;99.90;;;;;;5100820;28;20785;-60
2023/08/07 06:34:20;;;;;;;4.32;1.33;;;14.50;99.90;;;;;;5095024;28;20216;-60
2023/08/07 06:36:47;;;;;;;8.35;1.17;;;14.50;99.90;;;;;;5093148;28;20287;-60
2023/08/07 06:39:15;;;;;;;5.07;1.40;;;14.50;99.90;;;;;;5105956;28;20232;-60
2023/08/07 06:41:43;;;;;;;3.42;1.33;;;14.50;99.90;;;;;;5101031;28;20312;-60
2023/08/07 06:44:11;;;;;;;6.03;1.50;;;14.50;99.90;;;;;;5098095;28;20581;-60
2023/08/07 06:46:40;;;;;;;2.05;1.58;;;14.50;99.90;;;;;;5107881;28;20663;-60
2023/08/07 06:49:08;;;;;;;8.88;1.65;;;14.50;99.90;;;;;;5096052;28;20288;-60
2023/08/07 06:51:36;;;;;;;4.10;1.15;;;14.50;99.90;;;;;;5103038;28;20711;-60
2023/08/07 06:54:04;;;;;;;2.83;1.27;;;14.50;99.90;;;;;;5103631;28;20652;-60
2023/08/07 06:56:32;;;;;;;3.95;1.55;;;14.40;99.90;;;;;;5095060;28;20246;-60
2023/08/07 06:59:00;;;;;;;3.70;1.30;;;14.40;99.90;;;;;;5094282;28;20283;-59
2023/08/07 07:01:29;;;;;;;4.10;1.10;;;14.40;99.90;;;;;;5103872;28;20862;-60
2023/08/07 07:03:58;;;;;;;3.83;1.23;;;14.50;99.90;;;;;;5102647;28;20290;-60
2023/08/07 07:06:26;;;;;;;2.78;1.40;;;14.50;99.90;;;;;;5095798;28;20203;-60
2023/08/07 07:08:54;;;;;;;5.38;1.30;;;14.50;99.90;;;;;;5108441;28;20204;-59
2023/08/07 07:11:24;;;;;;;2.35;1.10;;;14.50;99.90;;;;;;5101332;28;20268;-59
2023/08/07 07:13:52;;;;;;;1.55;1.10;;;14.50;99.90;;;;;;5104568;28;20288;-60
2023/08/07 07:16:21;;;;;;;4.10;0.90;;;14.60;99.90;;;;;;5109164;28;20255;-60
2023/08/07 07:18:50;;;;;;;4.28;1.30;;;14.70;99.90;;;;;;5098166;28;20201;-60
2023/08/07 07:21:20;;;;;;;6.93;1.20;;;14.70;99.90;;;;;;5108820;28;20648;-60
2023/08/07 07:23:48;;;;;;;4.72;1.20;;;14.80;99.90;;;;;;5104787;28;20196;-60
2023/08/07 07:26:16;;;;;;;6.93;1.67;;;14.80;99.90;;;;;;5100477;28;20227;-60
2023/08/07 07:28:43;;;;;;;7.03;1.00;;;14.80;99.90;;;;;;5111611;28;20245;-60
2023/08/07 07:31:11;;;;;;;3.88;1.17;;;14.90;99.90;;;;;;5099522;28;20695;-60
2023/08/07 07:33:41;;;;;;;1.83;1.30;;;14.90;99.90;;;;;;5111022;28;20209;-60
2023/08/07 07:36:14;;;;;;;4.63;1.35;;;14.90;99.90;;;;;;5101246;28;20216;-60
2023/08/07 07:38:43;;;;;;;3.92;1.10;;;14.90;99.90;;;;;;5111067;28;20245;-60
2023/08/07 07:41:13;;;;;;;5.57;1.75;;;14.90;99.90;;;;;;5099685;28;20711;-60
2023/08/07 07:43:41;;;;;;;2.53;0.93;;;14.90;99.90;;;;;;5105419;28;20225;-60
2023/08/07 07:46:09;;;;;;;4.07;1.05;;;14.90;99.90;;;;;;5107241;28;20257;-60
2023/08/07 07:48:37;;;;;;;3.42;1.33;;;14.90;99.90;;;;;;5097475;28;20208;-60
2023/08/07 07:51:05;;;;;;;4.18;1.20;;;14.90;99.90;;;;;;5110135;28;20252;-60
2023/08/07 07:53:33;;;;;;;3.13;1.02;;;14.90;99.90;;;;;;5102105;28;20622;-60
2023/08/07 07:56:02;;;;;;;3.33;1.52;;;14.90;99.90;;;;;;5102213;28;20221;-60
2023/08/07 07:58:30;;;;;;;3.38;1.20;;;15.00;99.90;;;;;;5110042;28;20210;-59
2023/08/07 08:00:58;;;;;;;3.58;1.55;;;15.00;99.90;;;;;;5097207;28;20249;-59
2023/08/07 08:03:25;;;;;;;1.67;1.30;;;15.00;99.90;;;;;;5106901;28;20254;-60
2023/08/07 08:05:54;;;;;;;6.68;1.30;;;15.00;99.90;;;;;;5104852;28;20204;-60
2023/08/07 08:08:21;;;;;;;3.30;1.35;;;15.00;99.90;;;;;;5099180;28;20200;-60
2023/08/07 08:10:51;;;;;;;1.98;1.48;;;15.10;99.90;;;;;;5110478;28;20220;-60
2023/08/07 08:13:20;;;;;;;3.40;1.05;;;15.10;99.90;;;;;;5099633;28;20200;-60
2023/08/07 08:15:48;;;;;;;2.38;1.17;;;15.20;99.90;;;;;;5103416;28;20251;-59
2023/08/07 08:18:16;;;;;;;8.18;1.45;;;15.20;99.90;;;;;;5107508;28;20204;-60
2023/08/07 08:20:44;;;;;;;4.28;1.55;;;15.20;99.90;;;;;;5096099;28;20256;-60
2023/08/07 08:23:12;;;;;;;5.03;1.50;;;15.10;99.90;;;;;;5108527;28;20621;-60
2023/08/07 08:25:40;;;;;;;6.32;1.70;;;15.10;99.90;;;;;;5102406;28;20284;-60
2023/08/07 08:28:08;;;;;;;3.72;1.50;;;15.10;99.90;;;;;;5100658;28;20201;-60
2023/08/07 08:30:37;;;;;;;3.03;1.52;;;15.20;99.90;;;;;;5109801;28;20235;-60
2023/08/07 08:33:06;;;;;;;4.32;1.55;;;15.20;99.90;;;;;;5096931;28;20607;-60
2023/08/07 08:35:34;;;;;;;3.65;1.40;;;15.20;99.90;;;;;;5093141;28;20217;-60
2023/08/07 08:38:03;;;;;;;3.42;1.60;;;15.20;99.90;;;;;;5105520;28;20250;-60
2023/08/07 08:40:31;;;;;;;6.15;1.60;;;15.20;99.90;;;;;;5097243;28;20313;-59
2023/08/07 08:42:59;;;;;;;4.50;1.40;;;15.20;99.90;;;;;;5109923;28;20288;-60
2023/08/07 08:45:27;;;;;;;4.90;2.03;;;15.20;99.90;;;;;;5100422;28;20310;-59
2023/08/07 08:48:00;;;;;;;6.03;1.70;;;15.20;99.90;;;;;;5102400;28;20204;-59
2023/08/07 08:50:28;;;;;;;4.28;1.55;;;15.20;99.90;;;;;;5108993;28;20224;-66
2023/08/07 08:52:56;;;;;;;4.47;1.75;;;15.20;99.90;;;;;;5096571;28;20212;-60
2023/08/07 08:55:24;;;;;;;9.60;1.60;;;15.20;99.90;;;;;;5105700;28;20228;-60
2023/08/07 08:57:53;;;;;;;3.35;1.50;;;15.20;99.90;;;;;;5103610;28;20769;-59
2023/08/07 09:00:21;;;;;;;3.15;1.50;;;15.20;99.90;;;;;;5098317;28;20224;-59
2023/08/07 09:02:49;;;;;;;4.47;1.33;;;15.20;99.90;;;;;;5109689;28;20282;-58
2023/08/07 09:05:20;;;;;;;5.07;1.52;;;15.20;99.90;;;;;;5098220;28;20652;-60
2023/08/07 09:07:48;;;;;;;4.70;1.17;;;15.20;99.90;;;;;;5102944;28;20663;-59
2023/08/07 09:10:16;;;;;;;6.40;2.05;;;15.30;99.90;;;;;;5106414;28;20306;-58
2023/08/07 09:12:46;;;;;;;6.97;1.70;;;15.30;99.90;;;;;;5096217;28;20209;-59
2023/08/07 09:15:14;;;;;;;5.25;1.75;;;15.30;99.90;;;;;;5106991;28;20656;-58
2023/08/07 09:17:42;;;;;;;6.50;1.65;;;15.40;99.90;;;;;;5101760;28;20247;-59
2023/08/07 09:20:13;;;;;;;5.40;1.38;;;15.40;99.90;;;;;;5099123;28;20748;-58
2023/08/07 09:22:42;;;;;;;7.53;1.60;;;15.50;99.90;;;;;;5109049;28;20200;-60
2023/08/07 09:25:10;;;;;;;8.25;1.83;;;15.50;99.90;;;;;;5097087;28;20279;-58
2023/08/07 09:27:38;;;;;;;4.95;1.35;;;15.60;99.90;;;;;;5103926;28;20224;-60
2023/08/07 09:30:08;;;;;;;4.63;1.98;;;15.60;99.90;;;;;;5092067;28;20263;-60
2023/08/07 09:32:36;;;;;;;1.70;1.27;;;15.60;99.90;;;;;;5101845;22;20252;-77
2023/08/07 09:35:05;;;;;;;3.40;1.95;;;15.40;99.90;;;;;;5071294;28;20193;-77
2023/08/07 09:37:33;;;;;;;3.38;1.30;;;15.50;99.90;;;;;;5071710;28;20312;-77
2023/08/07 09:40:02;;;;;;;4.45;1.17;;;15.40;99.90;;;;;;5071383;28;20232;-77
2023/08/07 09:42:31;;;;;;;2.80;1.42;;;15.30;99.90;;;;;;5071519;28;20217;-77
2023/08/07 09:45:00;;;;;;;4.75;1.70;;;15.40;99.90;;;;;;5071392;28;20214;-77
2023/08/07 09:47:29;;;;;;;5.25;1.58;;;15.40;99.90;;;;;;5071747;28;20197;-77
2023/08/07 09:49:57;;;;;;;3.83;1.50;;;15.30;99.90;;;;;;5071299;28;20201;-77
2023/08/07 09:52:26;;;;;;;4.78;1.40;;;15.30;99.90;;;;;;5071594;28;20599;-77
2023/08/07 09:54:57;;;;;;;4.18;1.50;;;15.20;99.90;;;;;;5071318;28;20233;-77
2023/08/07 09:57:27;;;;;;;2.42;1.15;;;15.30;99.90;;;;;;5071398;28;20444;-77
2023/08/07 09:59:55;;;;;;;4.00;1.10;;;15.20;99.90;;;;;;5071750;28;20542;-77
2023/08/07 10:02:22;;;;;;;2.53;1.35;;;15.30;99.90;;;;;;5071104;28;20221;-77
2023/08/07 10:04:50;;;;;;;3.60;1.23;;;15.30;99.90;;;;;;5071211;28;20243;-77
2023/08/07 10:07:18;;;;;;;2.90;1.10;;;15.30;99.90;;;;;;5071473;28;20198;-77
2023/08/07 10:09:47;;;;;;;2.05;1.10;;;15.40;99.90;;;;;;5071128;28;20205;-77
2023/08/07 10:12:15;;;;;;;4.53;1.25;;;15.40;99.90;;;;;;5070967;28;20302;-77
2023/08/07 10:14:44;;;;;;;1.63;1.38;;;15.40;99.90;;;;;;5070720;28;20278;-77
2023/08/07 10:17:12;;;;;;;5.40;1.48;;;15.50;99.90;;;;;;5071219;28;20731;-77
2023/08/07 10:19:40;;;;;;;4.78;1.15;;;15.50;99.90;;;;;;5071210;28;20266;-77
2023/08/07 10:22:08;;;;;;;4.50;1.40;;;15.50;99.90;;;;;;5071128;28;20292;-77
2023/08/07 10:24:37;;;;;;;3.10;1.30;;;15.60;99.90;;;;;;5070774;28;20237;-77
2023/08/07 10:27:05;;;;;;;5.10;1.67;;;15.70;99.90;;;;;;5070938;28;20201;-77
2023/08/07 10:29:33;;;;;;;3.10;1.73;;;15.80;99.90;;;;;;5070731;28;20553;-77
2023/08/07 10:32:02;;;;;;;1.83;1.17;;;15.80;99.90;;;;;;5070953;28;20718;-77
2023/08/07 10:34:31;;;;;;;3.72;1.20;;;15.80;99.90;;;;;;5070864;28;20201;-77
2023/08/07 10:36:59;;;;;;;3.05;1.17;;;15.90;99.90;;;;;;5070797;28;20266;-77
2023/08/07 10:39:27;;;;;;;3.97;1.50;;;16.00;99.90;;;;;;5070873;28;20205;-77
2023/08/07 10:41:55;;;;;;;3.80;1.38;;;16.00;99.90;;;;;;5070644;28;20267;-77
2023/08/07 10:44:23;;;;;;;2.25;1.15;;;16.10;99.90;;;;;;5072181;28;20663;-77
2023/08/07 10:46:53;;;;;;;3.13;1.15;;;16.20;99.90;;;;;;5074637;28;20213;-77
2023/08/07 10:49:36;;;;;;;4.80;1.30;;;16.20;99.90;;;;;;5074768;28;20200;-77
2023/08/07 10:52:05;;;;;;;7.63;1.58;;;16.20;99.90;;;;;;5074784;28;20229;-77
2023/08/07 10:54:42;;;;;;;6.32;1.20;;;16.30;99.90;;;;;;5074372;28;20263;-77
2023/08/07 10:57:14;;;;;;;4.90;1.58;;;16.40;99.90;;;;;;5059519;28;20270;-77
2023/08/07 10:59:45;;;;;;;3.25;1.40;;;16.40;99.90;;;;;;5074500;28;20201;-77
2023/08/07 11:02:14;;;;;;;2.33;1.48;;;16.30;99.90;;;;;;5074747;28;20228;-77
2023/08/07 11:04:43;;;;;;;2.85;1.38;;;16.40;99.90;;;;;;5073889;28;20233;-77
2023/08/07 11:07:11;;;;;;;1.50;1.33;;;16.40;99.90;;;;;;5074726;28;20194;-77
2023/08/07 11:09:39;;;;;;;2.70;1.85;;;16.50;99.90;;;;;;5073756;28;20225;-77
2023/08/07 11:12:07;;;;;;;3.95;1.27;;;16.50;99.90;;;;;;5074241;28;20722;-77
2023/08/07 11:14:35;;;;;;;3.05;1.38;;;16.50;99.90;;;;;;5073904;28;20634;-77
2023/08/07 11:17:03;;;;;;;6.72;1.58;;;16.50;99.90;;;;;;5074525;28;20221;-77
2023/08/07 11:19:31;;;;;;;1.27;1.17;;;16.60;99.90;;;;;;5074367;28;20233;-77
2023/08/07 11:22:00;;;;;;;5.32;1.40;;;16.70;99.90;;;;;;5074204;28;20347;-77
2023/08/07 11:24:28;;;;;;;2.47;1.27;;;16.90;99.90;;;;;;5074203;28;20368;-77
2023/08/07 11:26:58;;;;;;;9.07;1.55;;;17.10;99.90;;;;;;5073852;28;20193;-77
2023/08/07 11:29:30;;;;;;;3.10;1.38;;;17.20;99.90;;;;;;5073842;28;20197;-77
2023/08/07 11:31:58;;;;;;;2.28;1.35;;;17.40;99.90;;;;;;5073648;28;20717;-77
2023/08/07 11:34:26;;;;;;;1.17;1.10;;;17.40;99.90;;;;;;5073923;28;20247;-77
2023/08/07 11:36:55;;;;;;;4.63;1.40;;;17.50;99.90;;;;;;5073780;28;20250;-77
2023/08/07 11:39:26;;;;;;;4.57;1.30;;;17.60;99.90;;;;;;5073800;28;20202;-77
2023/08/07 11:41:54;;;;;;;5.00;1.63;;;17.70;99.90;;;;;;5073794;28;20336;-77
2023/08/07 11:44:23;;;;;;;6.53;1.63;;;17.70;99.90;;;;;;5073377;28;20262;-77
2023/08/07 11:46:51;;;;;;;6.07;1.48;;;17.70;99.90;;;;;;5073749;28;20217;-77
2023/08/07 11:49:19;;;;;;;1.15;0.98;;;17.60;99.90;;;;;;5074092;28;20266;-77
2023/08/07 11:51:47;;;;;;;8.90;1.20;;;17.60;99.90;;;;;;5073419;28;20217;-77
2023/08/07 11:54:15;;;;;;;2.30;1.20;;;17.50;99.90;;;;;;5073431;28;20205;-77
2023/08/07 11:56:46;;;;;;;2.58;1.20;;;17.50;99.90;;;;;;5073056;28;20232;-76
2023/08/07 11:59:14;;;;;;;4.35;1.40;;;17.40;99.90;;;;;;5073661;28;20197;-77
2023/08/07 12:01:42;;;;;;;8.73;1.27;;;17.40;99.90;;;;;;5073165;28;20271;-77
2023/08/07 12:04:11;;;;;;;6.80;1.10;;;17.40;99.90;;;;;;5073429;28;20209;-77
2023/08/07 12:06:40;;;;;;;4.32;1.15;;;17.40;99.90;;;;;;5073016;28;20255;-77
2023/08/07 12:09:12;;;;;;;3.53;1.02;;;17.50;99.90;;;;;;5073321;28;20231;-77
2023/08/07 12:11:40;;;;;;;3.72;1.50;;;17.40;99.90;;;;;;5073317;28;20278;-77
2023/08/07 12:14:09;;;;;;;1.98;1.20;;;17.40;99.90;;;;;;5073514;28;20300;-77
2023/08/07 12:16:37;;;;;;;1.92;1.20;;;17.40;99.90;;;;;;5072949;28;20228;-77
2023/08/07 12:19:05;;;;;;;2.05;1.08;;;17.50;99.90;;;;;;5072905;28;20312;-77
2023/08/07 12:21:34;;;;;;;2.72;1.17;;;17.50;99.90;;;;;;5072983;28;20302;-77
2023/08/07 12:24:01;;;;;;;4.90;1.45;;;17.70;99.90;;;;;;5073129;28;20197;-77
2023/08/07 12:26:29;;;;;;;2.35;1.25;;;18.10;99.90;;;;;;5072896;28;20240;-77
2023/08/07 12:28:57;;;;;;;3.75;1.63;;;18.30;99.90;;;;;;5072783;28;20270;-77
2023/08/07 12:31:26;;;;;;;2.88;1.05;;;18.60;99.90;;;;;;5072881;28;20205;-77
2023/08/07 12:33:54;;;;;;;3.47;1.40;;;18.80;99.90;;;;;;5072606;28;20198;-77
2023/08/07 12:36:22;;;;;;;2.05;1.20;;;18.90;99.90;;;;;;5072354;28;20254;-77
2023/08/07 12:38:50;;;;;;;2.60;1.50;;;19.00;99.90;;;;;;5072814;28;20260;-77
2023/08/07 12:41:18;;;;;;;3.10;1.33;;;19.00;99.90;;;;;;5072786;28;20204;-78
2023/08/07 12:43:49;;;;;;;6.47;1.15;;;19.00;99.90;;;;;;5072967;28;20236;-77
2023/08/07 12:46:17;;;;;;;3.65;1.25;;;18.90;99.90;;;;;;5072407;28;20304;-77
2023/08/07 12:48:49;;;;;;;3.55;1.25;;;18.80;99.90;;;;;;5072288;28;20284;-77
2023/08/07 12:51:17;;;;;;;4.78;1.50;;;18.70;99.90;;;;;;5072502;28;20204;-77